createdAt,value
2018-07-28T00:00:51.412Z,19.60
2018-07-28T00:03:19.753Z,19.60
2018-07-28T00:05:48.103Z,19.50
2018-07-28T00:08:16.439Z,19.60
2018-07-28T00:10:44.838Z,19.60
2018-07-28T00:13:13.144Z,19.60
2018-07-28T00:15:41.524Z,19.60
2018-07-28T00:18:09.849Z,19.60
2018-07-28T00:20:38.225Z,19.60
2018-07-28T00:23:06.608Z,19.50
2018-07-28T00:25:37.804Z,19.60
2018-07-28T00:28:06.945Z,19.40
2018-07-28T00:30:35.287Z,19.40
2018-07-28T00:33:03.610Z,19.40
2018-07-28T00:35:31.971Z,19.30
2018-07-28T00:38:00.270Z,19.20
2018-07-28T00:40:28.608Z,19.20
2018-07-28T00:42:56.959Z,19.10
2018-07-28T00:45:25.241Z,19.10
2018-07-28T00:47:53.584Z,19.10
2018-07-28T00:50:21.944Z,19.00
2018-07-28T00:52:50.378Z,18.90
2018-07-28T00:55:18.759Z,18.90
2018-07-28T01:00:15.161Z,18.90
2018-07-28T01:02:43.496Z,18.80
2018-07-28T01:05:11.847Z,18.80
2018-07-28T01:07:40.143Z,18.90
2018-07-28T01:12:36.745Z,18.90
2018-07-28T01:15:07.900Z,18.90
2018-07-28T01:17:36.258Z,18.90
2018-07-28T01:20:06.263Z,18.90
2018-07-28T01:22:34.573Z,18.90
2018-07-28T01:25:02.989Z,18.70
2018-07-28T01:27:31.371Z,18.80
2018-07-28T01:29:59.681Z,18.80
2018-07-28T01:32:27.980Z,18.80
2018-07-28T01:34:56.283Z,18.70
2018-07-28T01:37:24.580Z,18.60
2018-07-28T01:39:52.905Z,18.40
2018-07-28T01:42:21.242Z,18.20
2018-07-28T01:44:49.566Z,18.20
2018-07-28T01:47:17.917Z,18.30
2018-07-28T01:49:46.297Z,18.40
2018-07-28T01:52:14.692Z,18.30
2018-07-28T01:54:43.059Z,18.20
2018-07-28T01:57:11.398Z,18.20
2018-07-28T01:59:39.768Z,18.10
2018-07-28T02:02:08.141Z,18.20
2018-07-28T02:04:36.505Z,18.30
2018-07-28T02:07:05.288Z,18.30
2018-07-28T02:09:33.666Z,18.20
2018-07-28T02:12:02.025Z,18.30
2018-07-28T02:14:30.364Z,18.20
2018-07-28T02:16:58.734Z,18.20
2018-07-28T02:19:27.114Z,18.30
2018-07-28T02:21:55.450Z,18.40
2018-07-28T02:24:23.832Z,18.40
2018-07-28T02:26:52.155Z,18.50
2018-07-28T02:29:20.534Z,18.60
2018-07-28T02:31:48.917Z,18.50
2018-07-28T02:34:17.270Z,18.00
2018-07-28T02:36:45.664Z,17.40
2018-07-28T02:41:42.433Z,17.70
2018-07-28T02:44:10.765Z,18.00
2018-07-28T02:46:39.078Z,18.30
2018-07-28T02:49:07.672Z,18.50
2018-07-28T02:51:36.036Z,18.80
2018-07-28T02:54:05.203Z,18.90
2018-07-28T02:56:33.567Z,18.80
2018-07-28T02:59:01.867Z,18.90
2018-07-28T03:01:30.173Z,18.90
2018-07-28T03:03:58.483Z,18.90
2018-07-28T03:06:26.774Z,19.00
2018-07-28T03:08:55.162Z,19.10
2018-07-28T03:11:23.478Z,19.20
2018-07-28T03:13:51.850Z,19.20
2018-07-28T03:16:20.187Z,19.20
2018-07-28T03:18:48.540Z,19.20
2018-07-28T03:21:16.873Z,19.00
2018-07-28T03:23:45.169Z,18.80
2018-07-28T03:26:13.527Z,18.80
2018-07-28T03:28:41.896Z,18.60
2018-07-28T03:31:10.250Z,18.60
2018-07-28T03:33:38.573Z,18.50
2018-07-28T03:36:06.903Z,18.50
2018-07-28T03:38:35.239Z,18.40
2018-07-28T03:41:03.590Z,18.40
2018-07-28T03:43:31.919Z,18.40
2018-07-28T03:46:00.248Z,18.30
2018-07-28T03:48:28.576Z,18.30
2018-07-28T03:50:56.931Z,18.40
2018-07-28T03:53:25.282Z,18.40
2018-07-28T03:55:53.649Z,18.40
2018-07-28T03:58:22.000Z,18.40
2018-07-28T04:00:50.310Z,18.40
2018-07-28T04:03:18.641Z,18.50
2018-07-28T04:05:46.973Z,18.50
2018-07-28T04:08:15.365Z,18.60
2018-07-28T04:10:43.678Z,18.60
2018-07-28T04:13:12.002Z,18.60
2018-07-28T04:15:40.342Z,18.50
2018-07-28T04:18:08.664Z,18.50
2018-07-28T04:20:37.149Z,18.50
2018-07-28T04:23:05.526Z,18.50
2018-07-28T04:25:33.843Z,18.70
2018-07-28T04:28:02.228Z,18.70
2018-07-28T04:30:30.545Z,18.60
2018-07-28T04:32:58.863Z,18.60
2018-07-28T04:35:27.198Z,18.70
2018-07-28T04:37:55.542Z,18.70
2018-07-28T04:40:23.906Z,18.70
2018-07-28T04:42:52.231Z,18.80
2018-07-28T04:50:16.663Z,18.60
2018-07-28T04:52:44.995Z,18.80
2018-07-28T04:55:13.312Z,19.10
2018-07-28T04:57:41.624Z,19.30
2018-07-28T05:00:09.982Z,19.40
2018-07-28T05:02:38.294Z,19.40
2018-07-28T05:05:06.615Z,19.60
2018-07-28T05:07:35.072Z,19.70
2018-07-28T05:10:03.261Z,19.70
2018-07-28T05:17:27.734Z,20.00
2018-07-28T05:19:56.085Z,20.10
2018-07-28T05:22:24.453Z,20.20
2018-07-28T05:24:52.826Z,20.20
2018-07-28T05:27:21.178Z,20.30
2018-07-28T05:29:49.522Z,20.30
2018-07-28T05:32:17.853Z,20.40
2018-07-28T05:34:46.221Z,20.30
2018-07-28T05:37:14.591Z,19.90
2018-07-28T05:39:42.898Z,19.80
2018-07-28T05:42:11.210Z,19.90
2018-07-28T05:47:07.606Z,19.90
2018-07-28T05:49:35.934Z,20.00
2018-07-28T05:52:04.275Z,20.00
2018-07-28T05:54:32.610Z,20.00
2018-07-28T05:57:00.929Z,20.10
2018-07-28T05:59:29.277Z,20.20
2018-07-28T06:01:57.593Z,20.30
2018-07-28T06:04:25.883Z,20.50
2018-07-28T06:06:54.289Z,20.70
2018-07-28T06:09:22.764Z,20.90
2018-07-28T06:11:51.106Z,20.90
2018-07-28T06:14:19.473Z,20.80
2018-07-28T06:16:47.865Z,20.70
2018-07-28T06:19:16.262Z,20.50
2018-07-28T06:21:44.689Z,20.40
2018-07-28T06:24:13.033Z,20.40
2018-07-28T06:26:41.464Z,20.30
2018-07-28T06:29:09.918Z,20.00
2018-07-28T06:31:38.405Z,19.60
2018-07-28T06:34:06.649Z,19.30
2018-07-28T06:36:35.202Z,19.20
2018-07-28T06:39:03.616Z,19.20
2018-07-28T06:41:31.904Z,19.30
2018-07-28T06:44:00.513Z,19.30
2018-07-28T06:46:28.922Z,19.20
2018-07-28T06:48:57.274Z,19.30
2018-07-28T06:53:53.671Z,19.60
2018-07-28T06:56:22.005Z,19.80
2018-07-28T06:58:50.581Z,20.00
2018-07-28T07:01:19.158Z,20.10
2018-07-28T07:03:47.661Z,20.20
2018-07-28T07:06:16.053Z,20.30
2018-07-28T07:08:44.390Z,20.40
2018-07-28T07:11:12.758Z,20.50
2018-07-28T07:13:41.679Z,20.60
2018-07-28T07:16:10.034Z,20.90
2018-07-28T07:18:38.379Z,20.90
2018-07-28T07:21:06.742Z,21.10
2018-07-28T07:23:35.429Z,21.20
2018-07-28T07:26:03.812Z,21.30
2018-07-28T07:28:32.138Z,21.30
2018-07-28T07:31:00.489Z,21.50
2018-07-28T07:33:29.317Z,21.40
2018-07-28T07:38:25.752Z,21.00
2018-07-28T07:40:54.310Z,21.00
2018-07-28T07:43:22.848Z,21.00
2018-07-28T07:45:51.235Z,20.90
2018-07-28T07:48:20.283Z,20.70
2018-07-28T07:50:48.666Z,20.70
2018-07-28T07:53:16.988Z,20.80
2018-07-28T07:55:45.365Z,20.90
2018-07-28T07:58:13.764Z,21.10
2018-07-28T08:00:42.208Z,21.30
2018-07-28T08:05:38.833Z,21.70
2018-07-28T08:08:07.195Z,21.70
2018-07-28T08:10:35.529Z,21.90
2018-07-28T08:13:03.871Z,21.80
2018-07-28T08:15:32.285Z,21.90
2018-07-28T08:20:28.696Z,22.30
2018-07-28T08:22:57.070Z,22.50
2018-07-28T08:25:25.389Z,22.70
2018-07-28T08:30:21.998Z,22.90
2018-07-28T08:32:50.560Z,23.00
2018-07-28T08:35:19.001Z,23.10
2018-07-28T08:37:47.472Z,23.20
2018-07-28T08:40:15.895Z,23.20
2018-07-28T08:42:44.348Z,23.10
2018-07-28T08:45:12.729Z,23.40
2018-07-28T08:47:41.060Z,24.10
2018-07-28T08:50:09.447Z,24.80
2018-07-28T08:52:37.832Z,25.00
2018-07-28T08:55:06.181Z,24.80
2018-07-28T08:57:34.554Z,24.90
2018-07-28T09:00:02.924Z,25.10
2018-07-28T09:02:31.281Z,25.40
2018-07-28T09:04:59.725Z,25.90
2018-07-28T09:07:28.048Z,26.20
2018-07-28T09:09:56.401Z,26.20
2018-07-28T09:12:24.785Z,26.20
2018-07-28T09:14:53.120Z,26.20
2018-07-28T09:17:21.638Z,26.30
2018-07-28T09:19:49.937Z,26.50
2018-07-28T09:22:18.343Z,26.40
2018-07-28T09:24:46.720Z,26.60
2018-07-28T09:29:43.351Z,26.60
2018-07-28T09:32:11.666Z,26.50
2018-07-28T09:34:40.053Z,26.80
2018-07-28T09:37:08.417Z,27.20
2018-07-28T09:39:36.777Z,27.50
2018-07-28T09:42:05.154Z,27.70
2018-07-28T09:44:33.895Z,27.40
2018-07-28T09:47:02.335Z,27.30
2018-07-28T09:49:30.632Z,27.40
2018-07-28T09:51:58.988Z,27.50
2018-07-28T09:56:55.719Z,27.30
2018-07-28T09:59:24.075Z,27.00
2018-07-28T10:01:52.413Z,27.20
2018-07-28T10:04:20.752Z,27.30
2018-07-28T10:06:49.102Z,27.20
2018-07-28T10:09:17.409Z,27.30
2018-07-28T10:11:45.780Z,27.50
2018-07-28T10:14:14.178Z,27.80
2018-07-28T10:16:42.532Z,28.00
2018-07-28T10:19:10.867Z,28.20
2018-07-28T10:21:39.295Z,28.00
2018-07-28T10:24:07.976Z,28.00
2018-07-28T10:26:36.315Z,28.20
2018-07-28T10:29:04.904Z,28.40
2018-07-28T10:31:33.281Z,28.50
2018-07-28T10:34:01.598Z,28.40
2018-07-28T10:36:30.048Z,28.30
2018-07-28T10:38:58.306Z,28.50
2018-07-28T10:41:26.686Z,28.50
2018-07-28T10:43:55.053Z,28.70
2018-07-28T10:46:23.372Z,28.90
2018-07-28T10:48:52.160Z,29.10
2018-07-28T10:53:48.682Z,29.50
2018-07-28T10:56:17.051Z,29.60
2018-07-28T10:58:45.421Z,29.70
2018-07-28T11:01:13.855Z,29.50
2018-07-28T11:03:42.635Z,29.40
2018-07-28T11:06:10.986Z,29.30
2018-07-28T11:08:39.385Z,29.20
2018-07-28T11:11:07.740Z,29.40
2018-07-28T11:13:36.097Z,29.60
2018-07-28T11:16:04.497Z,29.50
2018-07-28T11:18:32.948Z,29.50
2018-07-28T11:21:01.337Z,29.40
2018-07-28T11:23:40.943Z,29.20
2018-07-28T11:26:09.610Z,28.80
2018-07-28T11:28:37.957Z,28.40
2018-07-28T11:31:12.491Z,28.30
2018-07-28T11:33:52.090Z,28.00
2018-07-28T11:36:31.801Z,28.00
2018-07-28T11:39:11.462Z,27.60
2018-07-28T11:41:51.204Z,27.30
2018-07-28T11:46:54.921Z,26.40
2018-07-28T11:49:23.435Z,22.50
2018-07-28T11:51:52.368Z,21.00
2018-07-28T11:54:20.765Z,20.30
2018-07-28T11:56:49.151Z,20.20
2018-07-28T11:59:17.524Z,20.40
2018-07-28T12:01:45.918Z,20.60
2018-07-28T12:04:14.304Z,20.70
2018-07-28T12:09:10.780Z,21.10
2018-07-28T12:11:39.160Z,21.30
2018-07-28T12:14:07.516Z,21.80
2018-07-28T12:16:35.869Z,22.50
2018-07-28T12:19:04.226Z,23.10
2018-07-28T12:21:32.578Z,23.40
2018-07-28T12:24:00.990Z,24.00
2018-07-28T12:26:29.337Z,24.60
2018-07-28T12:28:57.691Z,24.90
2018-07-28T12:31:26.125Z,25.10
2018-07-28T12:36:22.680Z,25.10
2018-07-28T12:38:51.012Z,24.90
2018-07-28T12:41:19.356Z,24.80
2018-07-28T12:43:47.698Z,24.40
2018-07-28T12:46:16.049Z,24.20
2018-07-28T12:48:44.416Z,24.40
2018-07-28T12:51:12.742Z,24.90
2018-07-28T12:53:41.157Z,25.80
2018-07-28T12:56:09.571Z,26.90
2018-07-28T12:58:37.890Z,27.50
2018-07-28T13:01:06.284Z,28.50
2018-07-28T13:06:02.681Z,29.30
2018-07-28T13:08:31.026Z,29.20
2018-07-28T13:10:59.358Z,28.90
2018-07-28T13:13:28.064Z,29.40
2018-07-28T13:15:56.361Z,28.50
2018-07-28T13:18:24.664Z,27.20
2018-07-28T13:20:59.017Z,27.20
2018-07-28T13:23:27.392Z,27.20
2018-07-28T13:25:55.794Z,26.20
2018-07-28T13:28:24.123Z,25.70
2018-07-28T13:30:52.543Z,26.70
2018-07-28T13:33:23.098Z,27.60
2018-07-28T13:35:52.302Z,28.60
2018-07-28T13:38:20.680Z,29.30
2018-07-28T13:40:49.013Z,29.60
2018-07-28T13:43:17.874Z,29.50
2018-07-28T13:45:46.270Z,29.50
2018-07-28T13:48:14.652Z,29.40
2018-07-28T13:50:43.013Z,29.40
2018-07-28T13:53:11.365Z,29.70
2018-07-28T13:55:39.706Z,28.90
2018-07-28T13:58:08.119Z,28.60
2018-07-28T14:00:36.481Z,27.80
2018-07-28T14:03:04.935Z,27.60
2018-07-28T14:05:33.286Z,27.10
2018-07-28T14:08:01.665Z,26.70
2018-07-28T14:10:30.010Z,26.80
2018-07-28T14:12:58.460Z,27.20
2018-07-28T14:15:26.894Z,28.30
2018-07-28T14:17:55.304Z,29.10
2018-07-28T14:20:23.619Z,28.70
2018-07-28T14:22:51.989Z,28.20
2018-07-28T14:25:20.378Z,28.20
2018-07-28T14:27:48.822Z,28.00
2018-07-28T14:30:17.176Z,27.40
2018-07-28T14:32:45.591Z,27.00
2018-07-28T14:35:13.949Z,26.70
2018-07-28T14:37:42.297Z,26.60
2018-07-28T14:40:10.641Z,26.80
2018-07-28T14:42:38.989Z,27.80
2018-07-28T14:45:08.404Z,29.10
2018-07-28T14:47:36.760Z,29.40
2018-07-28T14:50:05.179Z,30.00
2018-07-28T14:52:33.633Z,31.00
2018-07-28T14:55:02.017Z,31.10
2018-07-28T14:57:30.453Z,29.40
2018-07-28T14:59:58.788Z,29.00
2018-07-28T15:02:27.097Z,29.30
2018-07-28T15:04:55.490Z,28.40
2018-07-28T15:07:23.872Z,27.80
2018-07-28T15:09:52.211Z,28.00
2018-07-28T15:12:20.631Z,28.40
2018-07-28T15:14:49.044Z,28.90
2018-07-28T15:17:17.421Z,28.40
2018-07-28T15:19:45.758Z,27.50
2018-07-28T15:22:14.104Z,26.90
2018-07-28T15:24:42.474Z,26.60
2018-07-28T15:27:10.810Z,26.40
2018-07-28T15:29:39.303Z,26.30
2018-07-28T15:32:07.654Z,26.20
2018-07-28T15:34:36.025Z,26.00
2018-07-28T15:37:04.380Z,25.90
2018-07-28T15:39:32.765Z,25.70
2018-07-28T15:42:01.200Z,25.70
2018-07-28T15:44:29.561Z,25.80
2018-07-28T15:46:57.917Z,26.60
2018-07-28T15:49:26.288Z,27.90
2018-07-28T15:51:54.635Z,28.20
2018-07-28T15:54:23.006Z,28.20
2018-07-28T15:56:51.352Z,27.80
2018-07-28T15:59:19.746Z,27.60
2018-07-28T16:01:48.168Z,27.00
2018-07-28T16:04:16.493Z,26.50
2018-07-28T16:06:44.886Z,26.10
2018-07-28T16:09:13.223Z,25.90
2018-07-28T16:11:41.600Z,25.80
2018-07-28T16:14:09.929Z,25.60
2018-07-28T16:16:38.370Z,25.40
2018-07-28T16:19:06.737Z,25.30
2018-07-28T16:21:35.062Z,25.10
2018-07-28T16:24:03.405Z,24.90
2018-07-28T16:26:31.757Z,24.80
2018-07-28T16:29:00.125Z,24.90
2018-07-28T16:31:28.613Z,24.90
2018-07-28T16:33:57.297Z,24.90
2018-07-28T16:36:25.645Z,25.10
2018-07-28T16:38:53.994Z,25.20
2018-07-28T16:41:22.363Z,25.70
2018-07-28T16:43:50.719Z,26.50
2018-07-28T16:46:19.109Z,27.00
2018-07-28T16:48:47.484Z,26.70
2018-07-28T16:53:43.939Z,26.60
2018-07-28T16:56:12.289Z,26.60
2018-07-28T16:58:40.635Z,26.90
2018-07-28T17:01:09.032Z,27.60
2018-07-28T17:03:37.388Z,28.10
2018-07-28T17:06:06.034Z,27.50
2018-07-28T17:08:34.420Z,26.70
2018-07-28T17:11:02.768Z,25.90
2018-07-28T17:13:31.157Z,25.70
2018-07-28T17:15:59.517Z,25.80
2018-07-28T17:18:27.856Z,25.70
2018-07-28T17:20:56.213Z,25.70
2018-07-28T17:23:24.574Z,26.00
2018-07-28T17:25:52.976Z,26.00
2018-07-28T17:28:21.311Z,25.70
2018-07-28T17:30:49.766Z,25.40
2018-07-28T17:33:18.087Z,25.30
2018-07-28T17:38:14.546Z,25.20
2018-07-28T17:40:42.965Z,25.20
2018-07-28T17:43:11.462Z,24.90
2018-07-28T17:45:39.832Z,24.80
2018-07-28T17:48:08.266Z,24.70
2018-07-28T17:50:36.643Z,24.50
2018-07-28T17:53:04.991Z,24.30
2018-07-28T17:55:33.348Z,24.20
2018-07-28T17:58:01.724Z,24.00
2018-07-28T18:00:30.048Z,23.90
2018-07-28T18:05:26.451Z,23.80
2018-07-28T18:07:54.908Z,23.80
2018-07-28T18:10:23.299Z,23.70
2018-07-28T18:12:51.649Z,23.80
2018-07-28T18:15:20.067Z,23.90
2018-07-28T18:17:48.456Z,23.90
2018-07-28T18:20:16.833Z,23.90
2018-07-28T18:22:45.165Z,23.90
2018-07-28T18:25:13.532Z,23.90
2018-07-28T18:27:41.898Z,23.80
2018-07-28T18:30:10.289Z,23.80
2018-07-28T18:32:38.638Z,23.90
2018-07-28T18:35:07.002Z,23.80
2018-07-28T18:37:35.345Z,23.80
2018-07-28T18:40:03.879Z,23.80
2018-07-28T18:42:32.233Z,23.60
2018-07-28T18:45:00.593Z,23.80
2018-07-28T18:47:28.985Z,23.80
2018-07-28T18:49:57.299Z,23.70
2018-07-28T18:52:25.669Z,23.50
2018-07-28T18:54:54.039Z,23.50
2018-07-28T18:57:22.355Z,23.30
2018-07-28T18:59:50.709Z,23.20
2018-07-28T19:02:19.091Z,23.10
2018-07-28T19:04:47.530Z,23.00
2018-07-28T19:07:15.908Z,22.90
2018-07-28T19:09:50.273Z,22.70
2018-07-28T19:14:51.141Z,22.60
2018-07-28T19:17:19.547Z,22.50
2018-07-28T19:19:47.949Z,22.50
2018-07-28T19:22:21.599Z,22.40
2018-07-28T19:24:49.970Z,22.30
2018-07-28T19:27:18.358Z,22.20
2018-07-28T19:32:14.770Z,22.00
2018-07-28T19:34:43.179Z,22.10
2018-07-28T19:37:20.567Z,21.90
2018-07-28T19:39:48.905Z,21.80
2018-07-28T19:42:22.523Z,21.80
2018-07-28T19:44:50.929Z,21.70
2018-07-28T19:47:19.347Z,21.60
2018-07-28T19:49:47.753Z,21.70
2018-07-28T19:52:16.152Z,21.60
2018-07-28T19:54:44.518Z,21.50
2018-07-28T19:57:12.892Z,21.50
2018-07-28T19:59:41.241Z,21.50
2018-07-28T20:02:09.629Z,21.30
2018-07-28T20:04:38.013Z,21.30
2018-07-28T20:07:06.382Z,21.20
2018-07-28T20:09:34.754Z,23.30
2018-07-28T20:12:03.085Z,21.10
2018-07-28T20:14:31.426Z,21.00
2018-07-28T20:16:59.813Z,21.00
2018-07-28T20:19:28.140Z,20.80
2018-07-28T20:24:24.577Z,20.80
2018-07-28T20:26:52.977Z,20.70
2018-07-28T20:29:21.388Z,20.70
2018-07-28T20:31:49.755Z,20.70
2018-07-28T20:34:18.164Z,20.70
2018-07-28T20:36:46.508Z,20.60
2018-07-28T20:39:14.841Z,20.50
2018-07-28T20:41:43.201Z,20.50
2018-07-28T20:44:11.641Z,20.40
2018-07-28T20:46:40.024Z,20.30
2018-07-28T20:49:08.373Z,20.30
2018-07-28T20:51:36.715Z,20.20
2018-07-28T20:54:05.055Z,20.20
2018-07-28T20:56:33.384Z,20.10
2018-07-28T20:59:01.727Z,20.10
2018-07-28T21:01:30.332Z,20.10
2018-07-28T21:03:58.661Z,20.00
2018-07-28T21:06:27.034Z,20.00
2018-07-28T21:08:55.389Z,20.00
2018-07-28T21:13:51.821Z,20.00
2018-07-28T21:16:20.226Z,20.00
2018-07-28T21:18:48.577Z,20.00
2018-07-28T21:21:16.920Z,19.40
2018-07-28T21:23:45.380Z,19.90
2018-07-28T21:26:13.781Z,19.80
2018-07-28T21:28:42.134Z,19.70
2018-07-28T21:31:10.525Z,19.60
2018-07-28T21:33:38.983Z,19.50
2018-07-28T21:36:07.240Z,19.40
2018-07-28T21:38:35.610Z,19.40
2018-07-28T21:41:03.984Z,19.30
2018-07-28T21:43:32.405Z,19.20
2018-07-28T21:46:00.801Z,19.10
2018-07-28T21:48:29.187Z,19.00
2018-07-28T21:50:57.589Z,18.80
2018-07-28T21:53:25.944Z,18.80
2018-07-28T21:55:54.295Z,18.70
2018-07-28T22:01:16.495Z,18.60
2018-07-28T22:03:44.931Z,18.50
2018-07-28T22:06:13.389Z,18.50
2018-07-28T22:08:41.849Z,18.40
2018-07-28T22:11:10.196Z,18.40
2018-07-28T22:13:38.553Z,18.30
2018-07-28T22:16:06.978Z,18.10
2018-07-28T22:18:35.375Z,18.20
2018-07-28T22:21:03.744Z,18.10
2018-07-28T22:23:32.083Z,18.00
2018-07-28T22:26:00.827Z,18.00
2018-07-28T22:28:29.421Z,18.00
2018-07-28T22:30:57.750Z,18.00
2018-07-28T22:33:26.152Z,18.00
2018-07-28T22:35:54.487Z,18.00
2018-07-28T22:38:22.873Z,17.90
2018-07-28T22:40:51.276Z,17.80
2018-07-28T22:43:19.624Z,17.70
2018-07-28T22:45:47.984Z,17.60
2018-07-28T22:48:16.345Z,17.50
2018-07-28T22:53:12.713Z,17.40
2018-07-28T22:55:41.063Z,17.30
2018-07-28T22:58:09.428Z,17.30
2018-07-28T23:00:37.745Z,17.20
2018-07-28T23:03:06.118Z,17.30
2018-07-28T23:05:34.469Z,17.20
2018-07-28T23:08:02.805Z,17.30
2018-07-28T23:10:31.206Z,17.30
2018-07-28T23:12:59.535Z,17.40
2018-07-28T23:15:27.934Z,17.40
2018-07-28T23:17:56.265Z,17.30
2018-07-28T23:20:24.604Z,17.30
2018-07-28T23:22:52.926Z,17.20
2018-07-28T23:25:21.306Z,17.10
2018-07-28T23:27:49.719Z,17.10
2018-07-28T23:30:18.040Z,16.90
2018-07-28T23:32:46.375Z,16.90
2018-07-28T23:35:14.697Z,16.70
2018-07-28T23:37:43.031Z,16.70
2018-07-28T23:40:11.432Z,16.60
2018-07-28T23:42:39.772Z,16.60
2018-07-28T23:45:08.121Z,16.50
2018-07-28T23:47:36.504Z,16.50
2018-07-28T23:50:04.960Z,16.50
2018-07-28T23:52:33.305Z,16.50
2018-07-28T23:55:01.622Z,16.60
2018-07-28T23:57:29.959Z,16.80
2018-07-28T23:59:58.359Z,16.80
